sensor_id;sensor_type;location;lat;lon;timestamp;pressure;altitude;pressure_sealevel;temperature;humidity
3294;BME280;1659;51.470;6.770;2022-11-18T00:00:47;99448.41;;;9.37;87.68
3294;BME280;1659;51.470;6.770;2022-11-18T00:03:14;99448.41;;;9.37;87.95
3294;BME280;1659;51.470;6.770;2022-11-18T00:05:40;99453.78;;;9.34;87.74
3294;BME280;1659;51.470;6.770;2022-11-18T00:08:07;99454.72;;;9.33;87.77
3294;BME280;1659;51.470;6.770;2022-11-18T00:10:36;99461.75;;;9.33;87.83
3294;BME280;1659;51.470;6.770;2022-11-18T00:13:02;99466.97;;;9.34;87.90
3294;BME280;1659;51.470;6.770;2022-11-18T00:16:04;99464.34;;;9.34;87.97
3294;BME280;1659;51.470;6.770;2022-11-18T00:18:31;99464.28;;;9.36;88.03
3294;BME280;1659;51.470;6.770;2022-11-18T00:21:00;99471.25;;;9.38;88.01
3294;BME280;1659;51.470;6.770;2022-11-18T00:23:27;99475.53;;;9.41;88.04
3294;BME280;1659;51.470;6.770;2022-11-18T00:25:54;99474.56;;;9.43;88.07
3294;BME280;1659;51.470;6.770;2022-11-18T00:28:20;99476.25;;;9.46;87.94
3294;BME280;1659;51.470;6.770;2022-11-18T00:30:47;99484.09;;;9.48;88.23
3294;BME280;1659;51.470;6.770;2022-11-18T00:33:15;99478.78;;;9.49;88.14
3294;BME280;1659;51.470;6.770;2022-11-18T00:35:41;99481.28;;;9.52;88.15
3294;BME280;1659;51.470;6.770;2022-11-18T00:38:08;99480.31;;;9.55;88.06
3294;BME280;1659;51.470;6.770;2022-11-18T00:40:34;99482.06;;;9.56;88.02
3294;BME280;1659;51.470;6.770;2022-11-18T00:43:01;99488.19;;;9.56;87.91
3294;BME280;1659;51.470;6.770;2022-11-18T00:45:26;99489.03;;;9.57;87.96
3294;BME280;1659;51.470;6.770;2022-11-18T00:47:53;99483.75;;;9.57;87.79
3294;BME280;1659;51.470;6.770;2022-11-18T00:50:20;99474.16;;;9.56;87.82
3294;BME280;1659;51.470;6.770;2022-11-18T00:52:47;99479.44;;;9.56;88.09
3294;BME280;1659;51.470;6.770;2022-11-18T00:55:13;99494.38;;;9.55;87.96
3294;BME280;1659;51.470;6.770;2022-11-18T00:57:40;99487.34;;;9.56;88.15
3294;BME280;1659;51.470;6.770;2022-11-18T01:00:08;99487.38;;;9.54;88.13
3294;BME280;1659;51.470;6.770;2022-11-18T01:02:35;99496.19;;;9.53;88.06
3294;BME280;1659;51.470;6.770;2022-11-18T01:05:02;99492.81;;;9.50;88.13
3294;BME280;1659;51.470;6.770;2022-11-18T01:07:30;99495.59;;;9.45;88.08
3294;BME280;1659;51.470;6.770;2022-11-18T01:09:56;99508.91;;;9.42;88.16
3294;BME280;1659;51.470;6.770;2022-11-18T01:12:23;99504.63;;;9.38;88.16
3294;BME280;1659;51.470;6.770;2022-11-18T01:15:08;99511.78;;;9.34;88.47
3294;BME280;1659;51.470;6.770;2022-11-18T01:17:34;99510.94;;;9.34;88.57
3294;BME280;1659;51.470;6.770;2022-11-18T01:20:01;99517.91;;;9.35;88.86
3294;BME280;1659;51.470;6.770;2022-11-18T01:22:27;99518.78;;;9.35;88.44
3294;BME280;1659;51.470;6.770;2022-11-18T01:24:55;99513.47;;;9.37;88.47
3294;BME280;1659;51.470;6.770;2022-11-18T01:27:22;99523.09;;;9.38;88.82
3294;BME280;1659;51.470;6.770;2022-11-18T01:29:49;99523.97;;;9.38;88.71
3294;BME280;1659;51.470;6.770;2022-11-18T01:32:15;99521.34;;;9.38;88.71
3294;BME280;1659;51.470;6.770;2022-11-18T01:34:42;99533.59;;;9.39;88.83
3294;BME280;1659;51.470;6.770;2022-11-18T01:37:08;99533.59;;;9.39;88.83
3294;BME280;1659;51.470;6.770;2022-11-18T01:39:35;99537.97;;;9.40;88.83
3294;BME280;1659;51.470;6.770;2022-11-18T01:42:03;99543.22;;;9.40;89.09
3294;BME280;1659;51.470;6.770;2022-11-18T01:44:56;99552.03;;;9.39;89.10
3294;BME280;1659;51.470;6.770;2022-11-18T01:47:25;99546.72;;;9.41;89.03
3294;BME280;1659;51.470;6.770;2022-11-18T01:49:53;99554.69;;;9.39;89.13
3294;BME280;1659;51.470;6.770;2022-11-18T01:52:20;99546.81;;;9.38;89.24
3294;BME280;1659;51.470;6.770;2022-11-18T01:54:52;99542.56;;;9.34;89.18
3294;BME280;1659;51.470;6.770;2022-11-18T01:57:23;99555.84;;;9.31;89.45
3294;BME280;1659;51.470;6.770;2022-11-18T01:59:54;99550.72;;;9.26;89.91
3294;BME280;1659;51.470;6.770;2022-11-18T02:02:22;99544.63;;;9.24;89.56
3294;BME280;1659;51.470;6.770;2022-11-18T02:04:50;99546.41;;;9.23;89.85
3294;BME280;1659;51.470;6.770;2022-11-18T02:07:19;99545.63;;;9.21;89.92
3294;BME280;1659;51.470;6.770;2022-11-18T02:09:46;99557.84;;;9.22;90.02
3294;BME280;1659;51.470;6.770;2022-11-18T02:12:12;99557.00;;;9.22;89.90
3294;BME280;1659;51.470;6.770;2022-11-18T02:14:42;99557.00;;;9.22;90.15
3294;BME280;1659;51.470;6.770;2022-11-18T02:17:18;99563.13;;;9.22;90.22
3294;BME280;1659;51.470;6.770;2022-11-18T02:20:06;99559.63;;;9.22;90.17
3294;BME280;1659;51.470;6.770;2022-11-18T02:23:13;99558.84;;;9.20;90.24
3294;BME280;1659;51.470;6.770;2022-11-18T02:25:49;99565.94;;;9.18;90.29
3294;BME280;1659;51.470;6.770;2022-11-18T02:28:34;99564.19;;;9.17;90.37
3294;BME280;1659;51.470;6.770;2022-11-18T02:31:06;99578.31;;;9.16;90.65
3294;BME280;1659;51.470;6.770;2022-11-18T02:33:40;99577.41;;;9.15;90.55
3294;BME280;1659;51.470;6.770;2022-11-18T02:36:12;99573.97;;;9.13;90.42
3294;BME280;1659;51.470;6.770;2022-11-18T02:38:44;99567.91;;;9.11;90.84
3294;BME280;1659;51.470;6.770;2022-11-18T02:41:16;99574.06;;;9.10;90.65
3294;BME280;1659;51.470;6.770;2022-11-18T02:43:46;99582.03;;;9.08;90.74
3294;BME280;1659;51.470;6.770;2022-11-18T02:46:19;99571.59;;;9.05;90.99
3294;BME280;1659;51.470;6.770;2022-11-18T02:48:49;99576.97;;;9.02;90.97
3294;BME280;1659;51.470;6.770;2022-11-18T02:51:20;99583.16;;;9.00;91.18
3294;BME280;1659;51.470;6.770;2022-11-18T02:53:49;99578.03;;;8.97;91.23
3294;BME280;1659;51.470;6.770;2022-11-18T02:56:17;99581.56;;;8.96;91.12
3294;BME280;1659;51.470;6.770;2022-11-18T02:58:45;99582.53;;;8.93;91.38
3294;BME280;1659;51.470;6.770;2022-11-18T03:01:17;99586.91;;;8.93;91.43
3294;BME280;1659;51.470;6.770;2022-11-18T03:03:45;99590.53;;;8.90;91.46
3294;BME280;1659;51.470;6.770;2022-11-18T03:06:21;99589.72;;;8.88;91.49
3294;BME280;1659;51.470;6.770;2022-11-18T03:08:56;99594.22;;;8.84;91.83
3294;BME280;1659;51.470;6.770;2022-11-18T03:11:27;99598.59;;;8.84;91.79
3294;BME280;1659;51.470;6.770;2022-11-18T03:14:05;99602.19;;;8.81;91.65
3294;BME280;1659;51.470;6.770;2022-11-18T03:16:37;99607.41;;;8.83;91.74
3294;BME280;1659;51.470;6.770;2022-11-18T03:19:09;99608.28;;;8.83;91.92
3294;BME280;1659;51.470;6.770;2022-11-18T03:21:43;99613.53;;;8.83;91.89
3294;BME280;1659;51.470;6.770;2022-11-18T03:24:15;99617.00;;;8.85;92.31
3294;BME280;1659;51.470;6.770;2022-11-18T03:26:48;99617.88;;;8.86;92.25
3294;BME280;1659;51.470;6.770;2022-11-18T03:29:18;99623.97;;;8.88;92.24
3294;BME280;1659;51.470;6.770;2022-11-18T03:31:49;99620.38;;;8.89;92.43
3294;BME280;1659;51.470;6.770;2022-11-18T03:34:21;99624.72;;;8.92;92.35
3294;BME280;1659;51.470;6.770;2022-11-18T03:36:53;99624.69;;;8.93;92.31
3294;BME280;1659;51.470;6.770;2022-11-18T03:39:22;99629.91;;;8.95;92.39
3294;BME280;1659;51.470;6.770;2022-11-18T03:41:54;99632.41;;;8.98;92.41
3294;BME280;1659;51.470;6.770;2022-11-18T03:44:28;99640.28;;;8.99;92.18
3294;BME280;1659;51.470;6.770;2022-11-18T03:46:59;99638.50;;;9.00;92.49
3294;BME280;1659;51.470;6.770;2022-11-18T03:49:33;99643.72;;;9.01;92.46
3294;BME280;1659;51.470;6.770;2022-11-18T03:52:06;99641.09;;;9.01;92.48
3294;BME280;1659;51.470;6.770;2022-11-18T03:54:37;99647.22;;;9.03;92.67
3294;BME280;1659;51.470;6.770;2022-11-18T03:57:07;99648.06;;;9.04;92.69
3294;BME280;1659;51.470;6.770;2022-11-18T03:59:40;99651.59;;;9.03;92.49
3294;BME280;1659;51.470;6.770;2022-11-18T04:02:12;99655.03;;;9.05;93.03
3294;BME280;1659;51.470;6.770;2022-11-18T04:04:40;99656.78;;;9.06;93.04
3294;BME280;1659;51.470;6.770;2022-11-18T04:07:10;99657.63;;;9.06;92.90
3294;BME280;1659;51.470;6.770;2022-11-18T04:09:44;99663.78;;;9.07;92.79
3294;BME280;1659;51.470;6.770;2022-11-18T04:12:15;99671.69;;;9.07;92.92
3294;BME280;1659;51.470;6.770;2022-11-18T04:14:44;99669.91;;;9.07;93.13
3294;BME280;1659;51.470;6.770;2022-11-18T04:17:15;99674.25;;;9.08;93.03
3294;BME280;1659;51.470;6.770;2022-11-18T04:19:42;99673.41;;;9.08;93.20
3294;BME280;1659;51.470;6.770;2022-11-18T04:22:09;99681.31;;;9.08;93.11
3294;BME280;1659;51.470;6.770;2022-11-18T04:24:36;99675.19;;;9.07;93.17
3294;BME280;1659;51.470;6.770;2022-11-18T04:27:03;99683.97;;;9.06;93.49
3294;BME280;1659;51.470;6.770;2022-11-18T04:29:30;99682.22;;;9.07;93.62
3294;BME280;1659;51.470;6.770;2022-11-18T04:31:57;99689.25;;;9.06;93.48
3294;BME280;1659;51.470;6.770;2022-11-18T04:34:25;99690.13;;;9.07;93.45
3294;BME280;1659;51.470;6.770;2022-11-18T04:36:52;99687.50;;;9.07;93.58
3294;BME280;1659;51.470;6.770;2022-11-18T04:39:19;99689.25;;;9.06;93.55
3294;BME280;1659;51.470;6.770;2022-11-18T04:41:46;99692.78;;;9.07;93.72
3294;BME280;1659;51.470;6.770;2022-11-18T04:44:21;99695.41;;;9.07;93.76
3294;BME280;1659;51.470;6.770;2022-11-18T04:46:48;99692.78;;;9.07;93.81
3294;BME280;1659;51.470;6.770;2022-11-18T04:49:14;99699.75;;;9.08;93.74
3294;BME280;1659;51.470;6.770;2022-11-18T04:51:43;99699.72;;;9.10;93.75
3294;BME280;1659;51.470;6.770;2022-11-18T04:54:10;99700.56;;;9.10;93.93
3294;BME280;1659;51.470;6.770;2022-11-18T04:56:38;99707.56;;;9.11;93.76
3294;BME280;1659;51.470;6.770;2022-11-18T04:59:05;99704.09;;;9.11;94.00
3294;BME280;1659;51.470;6.770;2022-11-18T05:01:31;99715.44;;;9.13;94.05
3294;BME280;1659;51.470;6.770;2022-11-18T05:03:59;99716.28;;;9.13;93.72
3294;BME280;1659;51.470;6.770;2022-11-18T05:06:25;99715.44;;;9.13;93.91
3294;BME280;1659;51.470;6.770;2022-11-18T05:08:53;99722.41;;;9.14;93.99
3294;BME280;1659;51.470;6.770;2022-11-18T05:11:20;99725.06;;;9.14;94.15
3294;BME280;1659;51.470;6.770;2022-11-18T05:14:13;99718.97;;;9.12;93.92
3294;BME280;1659;51.470;6.770;2022-11-18T05:16:39;99725.16;;;9.11;94.15
3294;BME280;1659;51.470;6.770;2022-11-18T05:19:06;99730.47;;;9.09;93.88
3294;BME280;1659;51.470;6.770;2022-11-18T05:21:33;99721.75;;;9.07;94.21
3294;BME280;1659;51.470;6.770;2022-11-18T05:24:01;99734.97;;;9.05;94.06
3294;BME280;1659;51.470;6.770;2022-11-18T05:26:28;99727.06;;;9.05;94.23
3294;BME280;1659;51.470;6.770;2022-11-18T05:28:55;99731.53;;;9.03;94.34
3294;BME280;1659;51.470;6.770;2022-11-18T05:31:22;99740.31;;;9.02;94.52
3294;BME280;1659;51.470;6.770;2022-11-18T05:33:48;99742.16;;;9.00;94.25
3294;BME280;1659;51.470;6.770;2022-11-18T05:36:16;99744.81;;;8.99;94.59
3294;BME280;1659;51.470;6.770;2022-11-18T05:38:46;99738.69;;;8.98;94.32
3294;BME280;1659;51.470;6.770;2022-11-18T05:41:15;99751.03;;;8.96;94.53
3294;BME280;1659;51.470;6.770;2022-11-18T05:43:55;99745.84;;;8.95;94.39
3294;BME280;1659;51.470;6.770;2022-11-18T05:46:22;99752.84;;;8.94;94.45
3294;BME280;1659;51.470;6.770;2022-11-18T05:48:49;99760.84;;;8.91;94.61
3294;BME280;1659;51.470;6.770;2022-11-18T05:51:15;99757.38;;;8.89;94.62
3294;BME280;1659;51.470;6.770;2022-11-18T05:53:42;99766.25;;;8.86;94.98
3294;BME280;1659;51.470;6.770;2022-11-18T05:56:18;99764.53;;;8.84;94.70
3294;BME280;1659;51.470;6.770;2022-11-18T05:58:45;99762.88;;;8.81;94.91
3294;BME280;1659;51.470;6.770;2022-11-18T06:01:14;99761.25;;;8.77;94.87
3294;BME280;1659;51.470;6.770;2022-11-18T06:03:43;99773.56;;;8.75;94.94
3294;BME280;1659;51.470;6.770;2022-11-18T06:06:12;99776.28;;;8.74;95.08
3294;BME280;1659;51.470;6.770;2022-11-18T06:08:44;99780.72;;;8.70;95.29
3294;BME280;1659;51.470;6.770;2022-11-18T06:11:14;99779.91;;;8.68;95.18
3294;BME280;1659;51.470;6.770;2022-11-18T06:13:44;99786.09;;;8.67;95.21
3294;BME280;1659;51.470;6.770;2022-11-18T06:16:15;99793.19;;;8.65;95.57
3294;BME280;1659;51.470;6.770;2022-11-18T06:18:41;99794.91;;;8.66;95.46
3294;BME280;1659;51.470;6.770;2022-11-18T06:21:08;99796.72;;;8.64;95.76
3294;BME280;1659;51.470;6.770;2022-11-18T06:23:36;99799.28;;;8.67;95.60
3294;BME280;1659;51.470;6.770;2022-11-18T06:26:03;99808.00;;;8.69;95.44
3294;BME280;1659;51.470;6.770;2022-11-18T06:28:30;99807.06;;;8.70;96.01
3294;BME280;1659;51.470;6.770;2022-11-18T06:30:58;99813.19;;;8.72;95.76
3294;BME280;1659;51.470;6.770;2022-11-18T06:33:25;99814.84;;;8.75;95.97
3294;BME280;1659;51.470;6.770;2022-11-18T06:35:51;99811.31;;;8.76;95.83
3294;BME280;1659;51.470;6.770;2022-11-18T06:38:18;99817.38;;;8.79;95.79
3294;BME280;1659;51.470;6.770;2022-11-18T06:40:44;99821.69;;;8.82;95.88
3294;BME280;1659;51.470;6.770;2022-11-18T06:43:11;99825.13;;;8.84;95.43
3294;BME280;1659;51.470;6.770;2022-11-18T06:45:58;99834.66;;;8.90;95.88
3294;BME280;1659;51.470;6.770;2022-11-18T06:48:43;99838.97;;;8.92;95.49
3294;BME280;1659;51.470;6.770;2022-11-18T06:51:09;99838.94;;;8.94;95.89
3294;BME280;1659;51.470;6.770;2022-11-18T06:53:36;99852.03;;;8.97;95.52
3294;BME280;1659;51.470;6.770;2022-11-18T06:56:03;99848.44;;;8.99;95.51
3294;BME280;1659;51.470;6.770;2022-11-18T06:58:30;99856.31;;;9.01;95.69
3294;BME280;1659;51.470;6.770;2022-11-18T07:01:08;99861.53;;;9.02;95.59
3294;BME280;1659;51.470;6.770;2022-11-18T07:03:34;99859.75;;;9.03;95.58
3294;BME280;1659;51.470;6.770;2022-11-18T07:06:01;99871.13;;;9.05;95.73
3294;BME280;1659;51.470;6.770;2022-11-18T07:08:27;99873.72;;;9.06;95.67
3294;BME280;1659;51.470;6.770;2022-11-18T07:10:54;99877.25;;;9.07;95.66
3294;BME280;1659;51.470;6.770;2022-11-18T07:13:20;99879.00;;;9.06;95.74
3294;BME280;1659;51.470;6.770;2022-11-18T07:15:47;99886.00;;;9.07;95.51
3294;BME280;1659;51.470;6.770;2022-11-18T07:18:15;99898.31;;;9.07;95.71
3294;BME280;1659;51.470;6.770;2022-11-18T07:20:41;99884.25;;;9.06;95.76
3294;BME280;1659;51.470;6.770;2022-11-18T07:23:08;99899.22;;;9.06;95.72
3294;BME280;1659;51.470;6.770;2022-11-18T07:25:34;99907.13;;;9.06;95.77
3294;BME280;1659;51.470;6.770;2022-11-18T07:28:01;99908.00;;;9.05;95.89
3294;BME280;1659;51.470;6.770;2022-11-18T07:30:27;99911.56;;;9.04;95.89
3294;BME280;1659;51.470;6.770;2022-11-18T07:32:54;99912.47;;;9.03;95.97
3294;BME280;1659;51.470;6.770;2022-11-18T07:35:21;99915.06;;;9.04;95.99
3294;BME280;1659;51.470;6.770;2022-11-18T07:37:48;99908.97;;;9.02;96.03
3294;BME280;1659;51.470;6.770;2022-11-18T07:40:14;99923.03;;;9.01;95.67
3294;BME280;1659;51.470;6.770;2022-11-18T07:42:41;99925.72;;;9.00;95.80
3294;BME280;1659;51.470;6.770;2022-11-18T07:45:09;99927.47;;;9.01;95.76
3294;BME280;1659;51.470;6.770;2022-11-18T07:47:36;99934.47;;;9.02;95.82
3294;BME280;1659;51.470;6.770;2022-11-18T07:50:03;99935.31;;;9.02;95.72
3294;BME280;1659;51.470;6.770;2022-11-18T07:52:31;99937.00;;;9.05;95.67
3294;BME280;1659;51.470;6.770;2022-11-18T07:54:58;99936.97;;;9.06;95.80
3294;BME280;1659;51.470;6.770;2022-11-18T07:57:24;99939.50;;;9.11;95.73
3294;BME280;1659;51.470;6.770;2022-11-18T07:59:51;99944.66;;;9.16;95.69
3294;BME280;1659;51.470;6.770;2022-11-18T08:02:17;99953.22;;;9.24;95.83
3294;BME280;1659;51.470;6.770;2022-11-18T08:04:44;99952.09;;;9.33;95.53
3294;BME280;1659;51.470;6.770;2022-11-18T08:07:10;99947.50;;;9.41;95.32
3294;BME280;1659;51.470;6.770;2022-11-18T08:09:38;99963.00;;;9.52;95.22
3294;BME280;1659;51.470;6.770;2022-11-18T08:12:05;99958.41;;;9.60;94.94
3294;BME280;1659;51.470;6.770;2022-11-18T08:14:32;99968.72;;;9.68;94.92
3294;BME280;1659;51.470;6.770;2022-11-18T08:16:58;99963.38;;;9.71;94.73
3294;BME280;1659;51.470;6.770;2022-11-18T08:19:25;99965.13;;;9.72;94.71
3294;BME280;1659;51.470;6.770;2022-11-18T08:21:52;99971.28;;;9.71;94.57
3294;BME280;1659;51.470;6.770;2022-11-18T08:24:18;99964.22;;;9.71;94.77
3294;BME280;1659;51.470;6.770;2022-11-18T08:26:46;99968.66;;;9.71;94.77
3294;BME280;1659;51.470;6.770;2022-11-18T08:29:13;99973.88;;;9.72;94.85
3294;BME280;1659;51.470;6.770;2022-11-18T08:31:40;99975.63;;;9.73;94.70
3294;BME280;1659;51.470;6.770;2022-11-18T08:34:06;99971.25;;;9.72;95.04
3294;BME280;1659;51.470;6.770;2022-11-18T08:36:35;99977.34;;;9.74;94.70
3294;BME280;1659;51.470;6.770;2022-11-18T08:39:04;99977.38;;;9.73;94.82
3294;BME280;1659;51.470;6.770;2022-11-18T08:41:32;99983.56;;;9.73;94.65
3294;BME280;1659;51.470;6.770;2022-11-18T08:44:01;99977.47;;;9.70;94.69
3294;BME280;1659;51.470;6.770;2022-11-18T08:46:29;99995.16;;;9.66;94.61
3294;BME280;1659;51.470;6.770;2022-11-18T08:48:55;99989.09;;;9.62;94.93
3294;BME280;1659;51.470;6.770;2022-11-18T08:51:22;99987.34;;;9.63;94.90
3294;BME280;1659;51.470;6.770;2022-11-18T08:53:49;99999.53;;;9.67;94.92
3294;BME280;1659;51.470;6.770;2022-11-18T08:56:17;100001.28;;;9.68;94.76
3294;BME280;1659;51.470;6.770;2022-11-18T08:58:45;100013.47;;;9.72;94.75
3294;BME280;1659;51.470;6.770;2022-11-18T09:01:13;100011.56;;;9.77;94.75
3294;BME280;1659;51.470;6.770;2022-11-18T09:03:39;100009.78;;;9.78;94.34
3294;BME280;1659;51.470;6.770;2022-11-18T09:06:07;100014.00;;;9.83;94.43
3294;BME280;1659;51.470;6.770;2022-11-18T09:08:34;100007.88;;;9.83;94.18
3294;BME280;1659;51.470;6.770;2022-11-18T09:11:04;100021.00;;;9.86;94.15
3294;BME280;1659;51.470;6.770;2022-11-18T09:13:31;100016.63;;;9.85;93.97
3294;BME280;1659;51.470;6.770;2022-11-18T09:15:58;100010.41;;;9.88;93.98
3294;BME280;1659;51.470;6.770;2022-11-18T09:18:26;100015.91;;;10.10;94.04
3294;BME280;1659;51.470;6.770;2022-11-18T09:20:54;100015.06;;;10.41;93.30
3294;BME280;1659;51.470;6.770;2022-11-18T09:23:21;100014.44;;;10.61;92.54
3294;BME280;1659;51.470;6.770;2022-11-18T09:25:47;100013.81;;;10.81;92.15
3294;BME280;1659;51.470;6.770;2022-11-18T09:28:14;100020.19;;;11.02;91.68
3294;BME280;1659;51.470;6.770;2022-11-18T09:30:40;100026.28;;;11.30;91.46
3294;BME280;1659;51.470;6.770;2022-11-18T09:33:07;100019.34;;;11.53;90.56
3294;BME280;1659;51.470;6.770;2022-11-18T09:35:40;100021.38;;;11.71;90.58
3294;BME280;1659;51.470;6.770;2022-11-18T09:38:07;100022.91;;;12.04;90.17
3294;BME280;1659;51.470;6.770;2022-11-18T09:40:40;100029.34;;;12.20;89.32
3294;BME280;1659;51.470;6.770;2022-11-18T09:43:14;100029.25;;;12.45;89.07
3294;BME280;1659;51.470;6.770;2022-11-18T09:45:47;100031.91;;;12.69;88.16
3294;BME280;1659;51.470;6.770;2022-11-18T09:48:17;100035.97;;;12.78;87.53
3294;BME280;1659;51.470;6.770;2022-11-18T09:50:46;100036.03;;;12.98;87.37
3294;BME280;1659;51.470;6.770;2022-11-18T09:53:18;100030.59;;;13.23;86.32
3294;BME280;1659;51.470;6.770;2022-11-18T09:55:46;100042.53;;;13.56;86.01
3294;BME280;1659;51.470;6.770;2022-11-18T09:58:16;100050.50;;;13.97;85.39
3294;BME280;1659;51.470;6.770;2022-11-18T10:00:43;100052.09;;;14.20;84.35
3294;BME280;1659;51.470;6.770;2022-11-18T10:03:13;100062.38;;;14.09;83.48
3294;BME280;1659;51.470;6.770;2022-11-18T10:05:46;100062.19;;;13.93;82.18
3294;BME280;1659;51.470;6.770;2022-11-18T10:08:21;100062.72;;;13.81;83.31
3294;BME280;1659;51.470;6.770;2022-11-18T10:10:56;100063.97;;;13.92;83.12
3294;BME280;1659;51.470;6.770;2022-11-18T10:13:33;100059.94;;;14.23;82.67
3294;BME280;1659;51.470;6.770;2022-11-18T10:16:15;100064.13;;;14.48;81.42
3294;BME280;1659;51.470;6.770;2022-11-18T10:18:48;100073.53;;;14.76;81.34
3294;BME280;1659;51.470;6.770;2022-11-18T10:21:27;100071.88;;;14.73;80.90
3294;BME280;1659;51.470;6.770;2022-11-18T10:24:01;100068.84;;;15.00;80.21
3294;BME280;1659;51.470;6.770;2022-11-18T10:26:32;100074.09;;;15.01;79.39
3294;BME280;1659;51.470;6.770;2022-11-18T10:28:59;100083.72;;;14.85;78.39
3294;BME280;1659;51.470;6.770;2022-11-18T10:31:25;100089.75;;;14.88;79.22
3294;BME280;1659;51.470;6.770;2022-11-18T10:33:57;100089.41;;;14.96;79.06
3294;BME280;1659;51.470;6.770;2022-11-18T10:36:27;100085.72;;;14.80;78.57
3294;BME280;1659;51.470;6.770;2022-11-18T10:39:06;100095.91;;;14.51;77.94
3294;BME280;1659;51.470;6.770;2022-11-18T10:41:38;100100.06;;;14.17;78.67
3294;BME280;1659;51.470;6.770;2022-11-18T10:44:26;100101.31;;;13.89;78.14
3294;BME280;1659;51.470;6.770;2022-11-18T10:46:53;100104.91;;;13.66;78.33
3294;BME280;1659;51.470;6.770;2022-11-18T10:49:19;100103.59;;;13.56;78.75
3294;BME280;1659;51.470;6.770;2022-11-18T10:52:05;100104.31;;;13.80;78.24
3294;BME280;1659;51.470;6.770;2022-11-18T10:54:33;100098.00;;;14.24;77.85
3294;BME280;1659;51.470;6.770;2022-11-18T10:57:05;100093.56;;;14.43;76.75
3294;BME280;1659;51.470;6.770;2022-11-18T10:59:34;100094.16;;;14.50;76.77
3294;BME280;1659;51.470;6.770;2022-11-18T11:02:14;100094.66;;;14.60;76.06
3294;BME280;1659;51.470;6.770;2022-11-18T11:04:42;100090.06;;;14.82;75.95
3294;BME280;1659;51.470;6.770;2022-11-18T11:07:16;100087.31;;;15.03;74.97
3294;BME280;1659;51.470;6.770;2022-11-18T11:09:58;100090.16;;;15.17;74.48
3294;BME280;1659;51.470;6.770;2022-11-18T11:12:26;100090.44;;;15.11;74.43
3294;BME280;1659;51.470;6.770;2022-11-18T11:14:55;100086.28;;;15.05;74.61
3294;BME280;1659;51.470;6.770;2022-11-18T11:17:28;100092.09;;;15.50;74.04
3294;BME280;1659;51.470;6.770;2022-11-18T11:20:02;100085.28;;;16.14;72.55
3294;BME280;1659;51.470;6.770;2022-11-18T11:22:31;100087.09;;;16.63;71.45
3294;BME280;1659;51.470;6.770;2022-11-18T11:24:58;100082.31;;;17.17;70.43
3294;BME280;1659;51.470;6.770;2022-11-18T11:27:41;100091.34;;;17.77;69.77
3294;BME280;1659;51.470;6.770;2022-11-18T11:30:14;100083.22;;;18.38;68.91
3294;BME280;1659;51.470;6.770;2022-11-18T11:36:01;100089.81;;;18.46;68.27
3294;BME280;1659;51.470;6.770;2022-11-18T11:38:36;100097.28;;;18.27;67.90
3294;BME280;1659;51.470;6.770;2022-11-18T11:41:11;100111.22;;;17.87;67.64
3294;BME280;1659;51.470;6.770;2022-11-18T11:43:56;100100.56;;;17.41;67.77
3294;BME280;1659;51.470;6.770;2022-11-18T11:46:36;100105.81;;;17.43;67.79
3294;BME280;1659;51.470;6.770;2022-11-18T11:49:16;100104.19;;;17.86;67.67
3294;BME280;1659;51.470;6.770;2022-11-18T11:51:47;100103.09;;;18.19;66.86
3294;BME280;1659;51.470;6.770;2022-11-18T11:54:23;100111.47;;;17.68;65.05
3294;BME280;1659;51.470;6.770;2022-11-18T11:56:56;100111.16;;;17.43;66.14
3294;BME280;1659;51.470;6.770;2022-11-18T11:59:28;100107.63;;;17.26;66.05
3294;BME280;1659;51.470;6.770;2022-11-18T12:04:59;100100.91;;;17.81;65.64
3294;BME280;1659;51.470;6.770;2022-11-18T12:07:31;100101.94;;;18.09;64.54
3294;BME280;1659;51.470;6.770;2022-11-18T12:10:17;100098.13;;;18.27;63.85
3294;BME280;1659;51.470;6.770;2022-11-18T12:12:49;100097.28;;;18.56;63.92
3294;BME280;1659;51.470;6.770;2022-11-18T12:15:39;100093.25;;;18.92;62.94
3294;BME280;1659;51.470;6.770;2022-11-18T12:18:13;100092.34;;;19.05;62.96
3294;BME280;1659;51.470;6.770;2022-11-18T12:20:43;100089.03;;;19.02;63.38
3294;BME280;1659;51.470;6.770;2022-11-18T12:23:13;100102.72;;;18.83;63.26
3294;BME280;1659;51.470;6.770;2022-11-18T12:25:55;100114.75;;;18.18;63.02
3294;BME280;1659;51.470;6.770;2022-11-18T12:28:24;100109.38;;;17.58;63.27
3294;BME280;1659;51.470;6.770;2022-11-18T12:33:53;100118.25;;;17.12;64.83
3294;BME280;1659;51.470;6.770;2022-11-18T12:36:24;100115.75;;;17.25;64.42
3294;BME280;1659;51.470;6.770;2022-11-18T12:38:52;100115.31;;;17.63;64.60
3294;BME280;1659;51.470;6.770;2022-11-18T12:41:54;100114.34;;;18.10;62.64
3294;BME280;1659;51.470;6.770;2022-11-18T12:44:36;100111.31;;;18.16;62.29
3294;BME280;1659;51.470;6.770;2022-11-18T12:47:04;100118.88;;;18.38;61.63
3294;BME280;1659;51.470;6.770;2022-11-18T12:52:53;100111.59;;;18.83;60.63
3294;BME280;1659;51.470;6.770;2022-11-18T12:55:23;100110.44;;;19.02;60.65
3294;BME280;1659;51.470;6.770;2022-11-18T12:57:51;100122.09;;;19.15;59.21
3294;BME280;1659;51.470;6.770;2022-11-18T13:00:29;100120.06;;;19.19;59.19
3294;BME280;1659;51.470;6.770;2022-11-18T13:02:57;100127.75;;;19.38;58.52
3294;BME280;1659;51.470;6.770;2022-11-18T13:05:26;100143.25;;;18.91;58.34
3294;BME280;1659;51.470;6.770;2022-11-18T13:07:56;100136.53;;;18.26;59.38
3294;BME280;1659;51.470;6.770;2022-11-18T13:10:45;100141.69;;;17.39;60.50
3294;BME280;1659;51.470;6.770;2022-11-18T13:13:21;100144.47;;;16.88;61.03
3294;BME280;1659;51.470;6.770;2022-11-18T13:15:49;100150.97;;;16.66;61.82
3294;BME280;1659;51.470;6.770;2022-11-18T13:18:33;100144.59;;;16.35;62.20
3294;BME280;1659;51.470;6.770;2022-11-18T13:21:19;100144.31;;;16.57;61.95
3294;BME280;1659;51.470;6.770;2022-11-18T13:24:13;100137.91;;;17.11;62.03
3294;BME280;1659;51.470;6.770;2022-11-18T13:26:41;100142.69;;;17.82;61.07
3294;BME280;1659;51.470;6.770;2022-11-18T13:29:21;100136.63;;;18.39;60.41
3294;BME280;1659;51.470;6.770;2022-11-18T13:31:58;100146.88;;;18.47;60.66
3294;BME280;1659;51.470;6.770;2022-11-18T13:34:28;100149.09;;;18.10;61.29
3294;BME280;1659;51.470;6.770;2022-11-18T13:36:57;100153.63;;;17.63;61.80
3294;BME280;1659;51.470;6.770;2022-11-18T13:39:26;100156.91;;;17.21;62.04
3294;BME280;1659;51.470;6.770;2022-11-18T13:41:58;100157.91;;;16.53;62.72
3294;BME280;1659;51.470;6.770;2022-11-18T13:44:28;100172.88;;;16.04;63.68
3294;BME280;1659;51.470;6.770;2022-11-18T13:47:00;100169.50;;;15.64;64.35
3294;BME280;1659;51.470;6.770;2022-11-18T13:49:40;100168.25;;;15.35;64.89
3294;BME280;1659;51.470;6.770;2022-11-18T13:52:10;100167.78;;;15.08;65.36
3294;BME280;1659;51.470;6.770;2022-11-18T13:54:39;100167.59;;;14.92;65.77